sensor_id;sensor_type;location;lat;lon;timestamp;pressure;altitude;pressure_sealevel;temperature;humidity
64200;BME280;50516;52.272;5.136;2023-04-03T00:00:42;103102.53;;;5.36;62.64
64200;BME280;50516;52.272;5.136;2023-04-03T00:03:08;103102.66;;;5.43;62.37
64200;BME280;50516;52.272;5.136;2023-04-03T00:05:33;103109.00;;;5.35;62.60
64200;BME280;50516;52.272;5.136;2023-04-03T00:07:58;103104.69;;;5.18;62.94
64200;BME280;50516;52.272;5.136;2023-04-03T00:10:24;103121.16;;;5.24;62.70
64200;BME280;50516;52.272;5.136;2023-04-03T00:12:49;103108.47;;;5.40;62.20
64200;BME280;50516;52.272;5.136;2023-04-03T00:15:15;103109.63;;;5.22;62.77
64200;BME280;50516;52.272;5.136;2023-04-03T00:17:40;103116.78;;;5.23;62.77
64200;BME280;50516;52.272;5.136;2023-04-03T00:20:06;103110.56;;;5.29;62.64
64200;BME280;50516;52.272;5.136;2023-04-03T00:22:31;103106.47;;;5.34;62.39
64200;BME280;50516;52.272;5.136;2023-04-03T00:24:57;103110.56;;;5.29;62.20
64200;BME280;50516;52.272;5.136;2023-04-03T00:27:22;103113.69;;;5.26;62.37
64200;BME280;50516;52.272;5.136;2023-04-03T00:29:47;103120.56;;;5.14;62.75
64200;BME280;50516;52.272;5.136;2023-04-03T00:32:13;103120.69;;;5.21;62.68
64200;BME280;50516;52.272;5.136;2023-04-03T00:34:38;103117.97;;;5.21;62.72
64200;BME280;50516;52.272;5.136;2023-04-03T00:37:04;103122.94;;;5.17;62.73
64200;BME280;50516;52.272;5.136;2023-04-03T00:39:30;103115.31;;;5.12;62.92
64200;BME280;50516;52.272;5.136;2023-04-03T00:41:55;103120.63;;;5.06;63.46
64200;BME280;50516;52.272;5.136;2023-04-03T00:46:58;103119.94;;;5.04;63.82
64200;BME280;50516;52.272;5.136;2023-04-03T00:49:24;103130.41;;;5.15;63.62
64200;BME280;50516;52.272;5.136;2023-04-03T00:51:50;103119.94;;;5.04;63.79
64200;BME280;50516;52.272;5.136;2023-04-03T00:54:16;103126.25;;;5.04;63.72
64200;BME280;50516;52.272;5.136;2023-04-03T00:56:41;103123.41;;;4.98;64.08
64200;BME280;50516;52.272;5.136;2023-04-03T00:59:10;103128.31;;;4.94;64.39
64200;BME280;50516;52.272;5.136;2023-04-03T01:01:37;103129.53;;;4.91;64.60
64200;BME280;50516;52.272;5.136;2023-04-03T01:04:04;103123.41;;;4.98;64.66
64200;BME280;50516;52.272;5.136;2023-04-03T01:06:34;103121.47;;;5.06;64.75
64200;BME280;50516;52.272;5.136;2023-04-03T01:09:00;103129.72;;;4.90;65.12
64200;BME280;50516;52.272;5.136;2023-04-03T01:11:26;103138.06;;;4.88;65.30
64200;BME280;50516;52.272;5.136;2023-04-03T01:13:52;103140.09;;;4.94;65.37
64200;BME280;50516;52.272;5.136;2023-04-03T01:16:18;103139.72;;;4.98;65.91
64200;BME280;50516;52.272;5.136;2023-04-03T01:18:45;103138.31;;;5.02;65.05
64200;BME280;50516;52.272;5.136;2023-04-03T01:21:42;103136.50;;;4.94;65.90
64200;BME280;50516;52.272;5.136;2023-04-03T01:24:27;103137.06;;;4.89;66.13
64200;BME280;50516;52.272;5.136;2023-04-03T01:26:57;103136.06;;;4.82;66.43
64200;BME280;50516;52.272;5.136;2023-04-03T01:29:22;103134.81;;;4.93;66.54
64200;BME280;50516;52.272;5.136;2023-04-03T01:31:56;103125.78;;;4.92;66.48
64200;BME280;50516;52.272;5.136;2023-04-03T01:34:22;103126.16;;;4.89;66.50
64200;BME280;50516;52.272;5.136;2023-04-03T01:36:47;103136.13;;;4.97;66.38
64200;BME280;50516;52.272;5.136;2023-04-03T01:39:13;103132.22;;;5.00;66.48
64200;BME280;50516;52.272;5.136;2023-04-03T01:41:39;103127.84;;;4.90;66.88
64200;BME280;50516;52.272;5.136;2023-04-03T01:44:04;103127.84;;;4.90;66.80
64200;BME280;50516;52.272;5.136;2023-04-03T01:46:30;103133.63;;;4.87;66.92
64200;BME280;50516;52.272;5.136;2023-04-03T01:48:56;103127.53;;;4.85;67.17
64200;BME280;50516;52.272;5.136;2023-04-03T01:51:21;103135.59;;;4.70;67.60
64200;BME280;50516;52.272;5.136;2023-04-03T01:53:46;103144.59;;;4.71;67.99
64200;BME280;50516;52.272;5.136;2023-04-03T01:56:12;103130.16;;;4.70;68.11
64200;BME280;50516;52.272;5.136;2023-04-03T01:58:37;103129.50;;;4.68;68.44
64200;BME280;50516;52.272;5.136;2023-04-03T02:01:03;103132.75;;;4.64;68.30
64200;BME280;50516;52.272;5.136;2023-04-03T02:03:28;103138.16;;;4.72;68.29
64200;BME280;50516;52.272;5.136;2023-04-03T02:05:54;103132.88;;;4.70;67.99
64200;BME280;50516;52.272;5.136;2023-04-03T02:08:20;103133.06;;;4.69;68.40
64200;BME280;50516;52.272;5.136;2023-04-03T02:10:49;103132.41;;;4.67;68.64
64200;BME280;50516;52.272;5.136;2023-04-03T02:13:15;103143.28;;;4.58;68.62
64200;BME280;50516;52.272;5.136;2023-04-03T02:15:40;103147.84;;;4.66;68.84
64200;BME280;50516;52.272;5.136;2023-04-03T02:18:06;103139.88;;;4.65;68.81
64200;BME280;50516;52.272;5.136;2023-04-03T02:20:32;103137.38;;;4.47;69.43
64200;BME280;50516;52.272;5.136;2023-04-03T02:22:59;103140.56;;;4.58;69.62
64200;BME280;50516;52.272;5.136;2023-04-03T02:25:24;103134.63;;;4.55;69.57
64200;BME280;50516;52.272;5.136;2023-04-03T02:27:50;103139.78;;;4.42;69.56
64200;BME280;50516;52.272;5.136;2023-04-03T02:30:15;103144.88;;;4.45;70.14
64200;BME280;50516;52.272;5.136;2023-04-03T02:32:41;103145.38;;;4.48;69.97
64200;BME280;50516;52.272;5.136;2023-04-03T02:35:07;103151.13;;;4.53;69.95
64200;BME280;50516;52.272;5.136;2023-04-03T02:37:33;103144.34;;;4.49;69.41
64200;BME280;50516;52.272;5.136;2023-04-03T02:39:58;103154.75;;;4.37;70.23
64200;BME280;50516;52.272;5.136;2023-04-03T02:42:24;103151.16;;;4.45;69.94
64200;BME280;50516;52.272;5.136;2023-04-03T02:44:49;103153.88;;;4.45;70.52
64200;BME280;50516;52.272;5.136;2023-04-03T02:47:14;103155.75;;;4.45;70.53
64200;BME280;50516;52.272;5.136;2023-04-03T02:49:40;103151.19;;;4.37;70.33
64200;BME280;50516;52.272;5.136;2023-04-03T02:52:05;103153.22;;;4.35;70.55
64200;BME280;50516;52.272;5.136;2023-04-03T02:54:30;103156.78;;;4.35;71.00
64200;BME280;50516;52.272;5.136;2023-04-03T02:56:57;103169.41;;;4.20;71.03
64200;BME280;50516;52.272;5.136;2023-04-03T02:59:22;103174.66;;;4.13;71.59
64200;BME280;50516;52.272;5.136;2023-04-03T03:01:48;103176.03;;;4.17;71.73
64200;BME280;50516;52.272;5.136;2023-04-03T03:04:13;103175.19;;;4.17;71.70
64200;BME280;50516;52.272;5.136;2023-04-03T03:06:38;103175.03;;;4.10;71.99
64200;BME280;50516;52.272;5.136;2023-04-03T03:09:04;103176.22;;;4.16;71.96
64200;BME280;50516;52.272;5.136;2023-04-03T03:11:30;103179.44;;;4.11;71.82
64200;BME280;50516;52.272;5.136;2023-04-03T03:13:56;103189.13;;;4.22;71.94
64200;BME280;50516;52.272;5.136;2023-04-03T03:16:21;103184.38;;;4.08;72.33
64200;BME280;50516;52.272;5.136;2023-04-03T03:18:47;103183.56;;;3.99;72.87
64200;BME280;50516;52.272;5.136;2023-04-03T03:21:12;103183.88;;;3.96;72.70
64200;BME280;50516;52.272;5.136;2023-04-03T03:23:38;103187.59;;;4.03;72.54
64200;BME280;50516;52.272;5.136;2023-04-03T03:26:06;103184.72;;;3.96;73.49
64200;BME280;50516;52.272;5.136;2023-04-03T03:28:32;103185.91;;;4.02;73.26
64200;BME280;50516;52.272;5.136;2023-04-03T03:30:58;103185.72;;;4.03;73.24
64200;BME280;50516;52.272;5.136;2023-04-03T03:33:24;103196.59;;;4.03;72.94
64200;BME280;50516;52.272;5.136;2023-04-03T03:35:51;103188.28;;;3.97;73.54
64200;BME280;50516;52.272;5.136;2023-04-03T03:38:16;103189.50;;;3.94;73.16
64200;BME280;50516;52.272;5.136;2023-04-03T03:40:42;103191.50;;;3.92;73.99
64200;BME280;50516;52.272;5.136;2023-04-03T03:43:07;103196.09;;;4.00;73.53
64200;BME280;50516;52.272;5.136;2023-04-03T03:45:32;103193.38;;;3.92;73.44
64200;BME280;50516;52.272;5.136;2023-04-03T03:47:58;103192.22;;;3.86;73.83
64200;BME280;50516;52.272;5.136;2023-04-03T03:50:23;103195.44;;;3.90;73.70
64200;BME280;50516;52.272;5.136;2023-04-03T03:52:49;103190.34;;;3.95;73.94
64200;BME280;50516;52.272;5.136;2023-04-03T03:55:15;103198.50;;;3.95;74.14
64200;BME280;50516;52.272;5.136;2023-04-03T03:57:40;103187.94;;;3.92;73.99
64200;BME280;50516;52.272;5.136;2023-04-03T04:00:06;103193.72;;;3.80;74.67
64200;BME280;50516;52.272;5.136;2023-04-03T04:02:32;103186.94;;;3.84;74.70
64200;BME280;50516;52.272;5.136;2023-04-03T04:04:57;103191.34;;;3.77;74.69
64200;BME280;50516;52.272;5.136;2023-04-03T04:07:23;103200.72;;;3.83;74.46
64200;BME280;50516;52.272;5.136;2023-04-03T04:09:48;103199.50;;;3.77;74.33
64200;BME280;50516;52.272;5.136;2023-04-03T04:12:13;103196.44;;;3.80;74.76
64200;BME280;50516;52.272;5.136;2023-04-03T04:14:39;103202.22;;;3.77;75.10
64200;BME280;50516;52.272;5.136;2023-04-03T04:17:05;103196.44;;;3.80;74.77
64200;BME280;50516;52.272;5.136;2023-04-03T04:19:31;103211.25;;;3.86;74.32
64200;BME280;50516;52.272;5.136;2023-04-03T04:21:56;103206.81;;;3.77;74.75
64200;BME280;50516;52.272;5.136;2023-04-03T04:24:21;103212.25;;;3.77;74.81
64200;BME280;50516;52.272;5.136;2023-04-03T04:26:48;103205.25;;;3.58;75.65
64200;BME280;50516;52.272;5.136;2023-04-03T04:29:13;103195.94;;;3.60;75.64
64200;BME280;50516;52.272;5.136;2023-04-03T04:31:39;103208.16;;;3.64;75.60
64200;BME280;50516;52.272;5.136;2023-04-03T04:34:04;103199.16;;;3.64;75.63
64200;BME280;50516;52.272;5.136;2023-04-03T04:36:30;103201.88;;;3.64;75.59
64200;BME280;50516;52.272;5.136;2023-04-03T04:38:55;103203.59;;;3.65;76.16
64200;BME280;50516;52.272;5.136;2023-04-03T04:41:21;103200.88;;;3.65;75.72
64200;BME280;50516;52.272;5.136;2023-04-03T04:43:48;103195.75;;;3.54;76.62
64200;BME280;50516;52.272;5.136;2023-04-03T04:46:13;103202.88;;;3.63;75.87
64200;BME280;50516;52.272;5.136;2023-04-03T04:48:39;103207.63;;;3.53;75.96
64200;BME280;50516;52.272;5.136;2023-04-03T04:51:05;103209.50;;;3.52;76.18
64200;BME280;50516;52.272;5.136;2023-04-03T04:53:30;103203.53;;;3.57;76.30
64200;BME280;50516;52.272;5.136;2023-04-03T04:55:55;103200.81;;;3.57;76.31
64200;BME280;50516;52.272;5.136;2023-04-03T04:58:21;103209.66;;;3.42;76.77
64200;BME280;50516;52.272;5.136;2023-04-03T05:00:47;103208.28;;;3.46;77.02
64200;BME280;50516;52.272;5.136;2023-04-03T05:03:12;103212.31;;;3.34;77.02
64200;BME280;50516;52.272;5.136;2023-04-03T05:05:38;103211.84;;;3.55;76.36
64200;BME280;50516;52.272;5.136;2023-04-03T05:08:03;103216.28;;;3.56;76.06
64200;BME280;50516;52.272;5.136;2023-04-03T05:10:30;103216.59;;;3.37;77.29
64200;BME280;50516;52.272;5.136;2023-04-03T05:12:58;103226.59;;;3.36;76.71
64200;BME280;50516;52.272;5.136;2023-04-03T05:15:23;103229.31;;;3.36;77.31
64200;BME280;50516;52.272;5.136;2023-04-03T05:17:49;103229.84;;;3.48;76.83
64200;BME280;50516;52.272;5.136;2023-04-03T05:20:14;103229.19;;;3.54;76.19
64200;BME280;50516;52.272;5.136;2023-04-03T05:22:40;103244.97;;;3.51;75.93
64200;BME280;50516;52.272;5.136;2023-04-03T05:25:05;103232.06;;;3.53;76.01
64200;BME280;50516;52.272;5.136;2023-04-03T05:27:31;103236.28;;;3.47;76.54
64200;BME280;50516;52.272;5.136;2023-04-03T05:29:56;103246.34;;;3.55;76.15
64200;BME280;50516;52.272;5.136;2023-04-03T05:32:23;103240.25;;;3.61;75.73
64200;BME280;50516;52.272;5.136;2023-04-03T05:34:49;103249.06;;;3.63;76.19
64200;BME280;50516;52.272;5.136;2023-04-03T05:37:15;103255.16;;;3.57;75.39
64200;BME280;50516;52.272;5.136;2023-04-03T05:39:40;103242.78;;;3.62;75.45
64200;BME280;50516;52.272;5.136;2023-04-03T05:42:07;103251.63;;;3.81;75.12
64200;BME280;50516;52.272;5.136;2023-04-03T05:44:32;103246.75;;;3.84;74.48
64200;BME280;50516;52.272;5.136;2023-04-03T05:46:58;103253.34;;;3.98;74.39
64200;BME280;50516;52.272;5.136;2023-04-03T05:49:23;103249.47;;;4.01;74.06
64200;BME280;50516;52.272;5.136;2023-04-03T05:51:49;103250.81;;;4.05;73.94
64200;BME280;50516;52.272;5.136;2023-04-03T05:54:20;103262.72;;;4.20;73.33
64200;BME280;50516;52.272;5.136;2023-04-03T05:56:48;103252.16;;;4.34;72.98
64200;BME280;50516;52.272;5.136;2023-04-03T05:59:13;103258.28;;;4.44;72.43
64200;BME280;50516;52.272;5.136;2023-04-03T06:01:39;103266.78;;;4.41;72.57
64200;BME280;50516;52.272;5.136;2023-04-03T06:04:04;103265.59;;;4.44;72.18
64200;BME280;50516;52.272;5.136;2023-04-03T06:06:52;103260.28;;;4.67;71.50
64200;BME280;50516;52.272;5.136;2023-04-03T06:09:20;103264.66;;;4.76;71.17
64200;BME280;50516;52.272;5.136;2023-04-03T06:11:46;103263.66;;;4.77;71.01
64200;BME280;50516;52.272;5.136;2023-04-03T06:14:11;103271.69;;;4.70;70.78
64200;BME280;50516;52.272;5.136;2023-04-03T06:16:37;103274.25;;;4.64;70.50
64200;BME280;50516;52.272;5.136;2023-04-03T06:19:03;103280.84;;;4.78;70.74
64200;BME280;50516;52.272;5.136;2023-04-03T06:21:29;103271.47;;;4.88;70.00
64200;BME280;50516;52.272;5.136;2023-04-03T06:23:55;103271.00;;;4.68;69.95
64200;BME280;50516;52.272;5.136;2023-04-03T06:26:20;103264.84;;;4.74;69.98
64200;BME280;50516;52.272;5.136;2023-04-03T06:28:46;103269.63;;;4.72;69.78
64200;BME280;50516;52.272;5.136;2023-04-03T06:31:11;103278.47;;;4.74;69.64
64200;BME280;50516;52.272;5.136;2023-04-03T06:33:37;103279.47;;;4.82;69.42
64200;BME280;50516;52.272;5.136;2023-04-03T06:36:04;103280.31;;;4.82;69.45
64200;BME280;50516;52.272;5.136;2023-04-03T06:38:31;103284.34;;;5.03;68.96
64200;BME280;50516;52.272;5.136;2023-04-03T06:40:56;103286.25;;;4.86;68.60
64200;BME280;50516;52.272;5.136;2023-04-03T06:43:22;103284.72;;;4.91;68.64
64200;BME280;50516;52.272;5.136;2023-04-03T06:45:47;103293.41;;;4.87;68.83
64200;BME280;50516;52.272;5.136;2023-04-03T06:48:15;103288.78;;;4.96;68.59
64200;BME280;50516;52.272;5.136;2023-04-03T06:50:40;103291.13;;;5.07;68.33
64200;BME280;50516;52.272;5.136;2023-04-03T06:53:06;103298.88;;;5.35;67.54
64200;BME280;50516;52.272;5.136;2023-04-03T06:55:32;103304.88;;;5.22;67.84
64200;BME280;50516;52.272;5.136;2023-04-03T06:57:57;103306.38;;;5.24;67.89
64200;BME280;50516;52.272;5.136;2023-04-03T07:00:22;103303.69;;;5.16;67.10
64200;BME280;50516;52.272;5.136;2023-04-03T07:02:48;103318.34;;;5.15;66.97
64200;BME280;50516;52.272;5.136;2023-04-03T07:05:13;103317.59;;;5.38;66.84
64200;BME280;50516;52.272;5.136;2023-04-03T07:07:39;103321.03;;;5.32;66.75
64200;BME280;50516;52.272;5.136;2023-04-03T07:10:05;103311.88;;;5.56;65.99
64200;BME280;50516;52.272;5.136;2023-04-03T07:12:31;103315.47;;;5.56;65.61
64200;BME280;50516;52.272;5.136;2023-04-03T07:14:57;103325.25;;;5.74;65.16
64200;BME280;50516;52.272;5.136;2023-04-03T07:17:22;103328.50;;;5.69;64.91
64200;BME280;50516;52.272;5.136;2023-04-03T07:19:47;103327.16;;;5.65;65.00
64200;BME280;50516;52.272;5.136;2023-04-03T07:22:13;103327.97;;;5.74;64.44
64200;BME280;50516;52.272;5.136;2023-04-03T07:24:38;103332.78;;;5.72;64.16
64200;BME280;50516;52.272;5.136;2023-04-03T07:27:04;103334.69;;;5.86;64.29
64200;BME280;50516;52.272;5.136;2023-04-03T07:29:30;103337.44;;;5.86;64.30
64200;BME280;50516;52.272;5.136;2023-04-03T07:31:55;103340.50;;;5.91;63.74
64200;BME280;50516;52.272;5.136;2023-04-03T07:34:21;103333.38;;;5.82;63.48
64200;BME280;50516;52.272;5.136;2023-04-03T07:36:46;103337.25;;;5.88;63.61
64200;BME280;50516;52.272;5.136;2023-04-03T07:39:12;103326.00;;;5.91;63.62
64200;BME280;50516;52.272;5.136;2023-04-03T07:41:37;103329.19;;;6.02;63.25
64200;BME280;50516;52.272;5.136;2023-04-03T07:44:03;103320.16;;;5.94;62.23
64200;BME280;50516;52.272;5.136;2023-04-03T07:46:29;103338.47;;;5.85;62.14
64200;BME280;50516;52.272;5.136;2023-04-03T07:48:55;103330.81;;;6.12;61.52
64200;BME280;50516;52.272;5.136;2023-04-03T07:51:20;103331.34;;;6.15;61.79
64200;BME280;50516;52.272;5.136;2023-04-03T07:53:45;103332.59;;;6.05;61.38
64200;BME280;50516;52.272;5.136;2023-04-03T07:56:13;103338.09;;;5.96;61.14
64200;BME280;50516;52.272;5.136;2023-04-03T07:58:38;103342.78;;;6.11;61.44
64200;BME280;50516;52.272;5.136;2023-04-03T08:01:04;103343.75;;;6.18;60.64
64200;BME280;50516;52.272;5.136;2023-04-03T08:03:29;103350.84;;;6.27;60.44
64200;BME280;50516;52.272;5.136;2023-04-03T08:06:02;103354.88;;;6.31;59.66
64200;BME280;50516;52.272;5.136;2023-04-03T08:08:28;103351.38;;;6.22;58.63
64200;BME280;50516;52.272;5.136;2023-04-03T08:10:54;103352.84;;;6.33;58.51
64200;BME280;50516;52.272;5.136;2023-04-03T08:13:20;103357.81;;;6.53;58.28
64200;BME280;50516;52.272;5.136;2023-04-03T08:15:46;103362.94;;;6.71;57.94
64200;BME280;50516;52.272;5.136;2023-04-03T08:18:12;103373.41;;;6.82;57.10
64200;BME280;50516;52.272;5.136;2023-04-03T08:20:38;103373.31;;;6.75;57.41
64200;BME280;50516;52.272;5.136;2023-04-03T08:23:06;103367.94;;;6.82;56.02
64200;BME280;50516;52.272;5.136;2023-04-03T08:25:31;103368.91;;;6.89;56.08
64200;BME280;50516;52.272;5.136;2023-04-03T08:27:57;103374.31;;;6.98;55.53
64200;BME280;50516;52.272;5.136;2023-04-03T08:30:22;103366.41;;;7.03;55.36
64200;BME280;50516;52.272;5.136;2023-04-03T08:32:47;103355.38;;;7.11;54.44
64200;BME280;50516;52.272;5.136;2023-04-03T08:35:13;103365.94;;;7.29;54.53
64200;BME280;50516;52.272;5.136;2023-04-03T08:37:39;103364.25;;;7.43;53.93
64200;BME280;50516;52.272;5.136;2023-04-03T08:40:07;103367.16;;;7.11;52.73
64200;BME280;50516;52.272;5.136;2023-04-03T08:45:42;103364.41;;;7.11;51.74
64200;BME280;50516;52.272;5.136;2023-04-03T08:50:44;103368.66;;;7.44;49.69
64200;BME280;50516;52.272;5.136;2023-04-03T08:53:15;103370.19;;;7.46;49.68
64200;BME280;50516;52.272;5.136;2023-04-03T08:55:46;103366.59;;;7.61;49.45
64200;BME280;50516;52.272;5.136;2023-04-03T08:58:23;103372.88;;;7.76;48.96
64200;BME280;50516;52.272;5.136;2023-04-03T09:01:05;103372.50;;;7.64;47.77
64200;BME280;50516;52.272;5.136;2023-04-03T09:03:34;103371.84;;;7.77;47.28
64200;BME280;50516;52.272;5.136;2023-04-03T09:06:13;103369.13;;;7.62;45.24
64200;BME280;50516;52.272;5.136;2023-04-03T09:08:47;103365.91;;;7.74;44.07
64200;BME280;50516;52.272;5.136;2023-04-03T09:14:26;103365.75;;;7.97;43.59
64200;BME280;50516;52.272;5.136;2023-04-03T09:17:07;103360.34;;;7.52;42.67
64200;BME280;50516;52.272;5.136;2023-04-03T09:19:52;103350.91;;;7.70;43.18
64200;BME280;50516;52.272;5.136;2023-04-03T09:22:28;103356.72;;;7.81;41.67
64200;BME280;50516;52.272;5.136;2023-04-03T09:24:59;103362.50;;;7.72;40.41
64200;BME280;50516;52.272;5.136;2023-04-03T09:27:25;103354.47;;;7.70;39.54
64200;BME280;50516;52.272;5.136;2023-04-03T09:29:53;103358.63;;;7.81;39.86
64200;BME280;50516;52.272;5.136;2023-04-03T09:32:29;103346.59;;;7.97;39.50
64200;BME280;50516;52.272;5.136;2023-04-03T09:34:58;103343.88;;;7.97;39.33
64200;BME280;50516;52.272;5.136;2023-04-03T09:37:35;103350.16;;;8.12;39.40
64200;BME280;50516;52.272;5.136;2023-04-03T09:40:01;103356.38;;;8.06;38.89
64200;BME280;50516;52.272;5.136;2023-04-03T09:42:29;103342.97;;;8.11;39.21
64200;BME280;50516;52.272;5.136;2023-04-03T09:44:57;103347.53;;;8.26;39.23
64200;BME280;50516;52.272;5.136;2023-04-03T09:47:27;103341.94;;;8.12;38.38
64200;BME280;50516;52.272;5.136;2023-04-03T09:52:38;103340.56;;;8.01;37.31
64200;BME280;50516;52.272;5.136;2023-04-03T09:55:18;103325.44;;;8.05;38.49
64200;BME280;50516;52.272;5.136;2023-04-03T09:57:45;103328.72;;;8.16;37.86
64200;BME280;50516;52.272;5.136;2023-04-03T10:00:31;103326.16;;;8.36;38.18
64200;BME280;50516;52.272;5.136;2023-04-03T10:02:58;103324.38;;;8.28;37.21
64200;BME280;50516;52.272;5.136;2023-04-03T10:08:09;103299.72;;;8.43;37.31
64200;BME280;50516;52.272;5.136;2023-04-03T10:10:34;103302.38;;;8.58;36.65
64200;BME280;50516;52.272;5.136;2023-04-03T10:15:45;103303.47;;;8.42;36.27
64200;BME280;50516;52.272;5.136;2023-04-03T10:18:57;103302.56;;;8.35;35.96
64200;BME280;50516;52.272;5.136;2023-04-03T10:21:35;103305.03;;;8.30;35.68
64200;BME280;50516;52.272;5.136;2023-04-03T10:24:09;103299.75;;;8.28;35.50
64200;BME280;50516;52.272;5.136;2023-04-03T10:26:45;103290.44;;;8.44;35.63
64200;BME280;50516;52.272;5.136;2023-04-03T10:29:18;103290.16;;;8.61;35.46
64200;BME280;50516;52.272;5.136;2023-04-03T10:32:15;103289.84;;;8.49;34.61
64200;BME280;50516;52.272;5.136;2023-04-03T10:34:45;103290.09;;;8.54;34.34
64200;BME280;50516;52.272;5.136;2023-04-03T10:37:30;103291.75;;;8.48;34.12
64200;BME280;50516;52.272;5.136;2023-04-03T10:40:28;103279.63;;;8.57;33.85
64200;BME280;50516;52.272;5.136;2023-04-03T10:43:12;103280.94;;;8.68;33.69
64200;BME280;50516;52.272;5.136;2023-04-03T10:45:57;103270.03;;;8.75;34.16
64200;BME280;50516;52.272;5.136;2023-04-03T10:51:04;103263.00;;;8.94;33.98
64200;BME280;50516;52.272;5.136;2023-04-03T10:53:44;103262.28;;;9.20;34.48
64200;BME280;50516;52.272;5.136;2023-04-03T10:59:12;103275.41;;;9.31;34.19
64200;BME280;50516;52.272;5.136;2023-04-03T11:01:40;103275.59;;;9.30;34.11
64200;BME280;50516;52.272;5.136;2023-04-03T11:04:08;103265.13;;;9.40;34.15
64200;BME280;50516;52.272;5.136;2023-04-03T11:06:42;103268.91;;;9.39;33.99
64200;BME280;50516;52.272;5.136;2023-04-03T11:09:22;103269.69;;;9.26;33.13
64200;BME280;50516;52.272;5.136;2023-04-03T11:11:48;103264.84;;;9.28;32.69
64200;BME280;50516;52.272;5.136;2023-04-03T11:14:31;103262.97;;;9.29;33.00
64200;BME280;50516;52.272;5.136;2023-04-03T11:19:50;103275.69;;;9.02;32.27
64200;BME280;50516;52.272;5.136;2023-04-03T11:27:51;103270.38;;;9.35;33.08
64200;BME280;50516;52.272;5.136;2023-04-03T11:30:23;103284.69;;;9.30;32.06
64200;BME280;50516;52.272;5.136;2023-04-03T11:35:32;103254.31;;;9.25;32.70
64200;BME280;50516;52.272;5.136;2023-04-03T11:38:00;103260.03;;;9.30;32.48
64200;BME280;50516;52.272;5.136;2023-04-03T11:40:35;103256.66;;;9.35;32.29
64200;BME280;50516;52.272;5.136;2023-04-03T11:51:02;103261.59;;;9.60;32.32
64200;BME280;50516;52.272;5.136;2023-04-03T11:53:46;103250.19;;;9.56;31.94
64200;BME280;50516;52.272;5.136;2023-04-03T12:01:47;103222.78;;;9.69;32.77
64200;BME280;50516;52.272;5.136;2023-04-03T12:04:15;103230.00;;;9.84;32.89
64200;BME280;50516;52.272;5.136;2023-04-03T12:12:00;103219.84;;;9.98;32.60
64200;BME280;50516;52.272;5.136;2023-04-03T12:14:27;103205.50;;;9.89;32.01
64200;BME280;50516;52.272;5.136;2023-04-03T12:16:54;103212.06;;;9.95;32.53
64200;BME280;50516;52.272;5.136;2023-04-03T12:19:36;103192.63;;;9.96;32.70
64200;BME280;50516;52.272;5.136;2023-04-03T12:24:33;103194.13;;;9.79;31.48
64200;BME280;50516;52.272;5.136;2023-04-03T12:35:29;103173.63;;;9.75;32.48
64200;BME280;50516;52.272;5.136;2023-04-03T12:38:22;103177.00;;;9.77;32.07
64200;BME280;50516;52.272;5.136;2023-04-03T12:41:01;103177.88;;;9.84;31.88
64200;BME280;50516;52.272;5.136;2023-04-03T12:46:43;103152.50;;;10.22;33.20
64200;BME280;50516;52.272;5.136;2023-04-03T12:49:33;103156.75;;;10.11;32.53
64200;BME280;50516;52.272;5.136;2023-04-03T12:52:03;103147.88;;;10.02;32.58
64200;BME280;50516;52.272;5.136;2023-04-03T12:54:35;103159.06;;;10.14;33.09
64200;BME280;50516;52.272;5.136;2023-04-03T12:57:11;103160.56;;;10.03;32.47
64200;BME280;50516;52.272;5.136;2023-04-03T12:59:36;103152.72;;;10.14;32.39
64200;BME280;50516;52.272;5.136;2023-04-03T13:02:17;103161.16;;;10.05;32.53
64200;BME280;50516;52.272;5.136;2023-04-03T13:04:45;103152.75;;;10.00;31.85
64200;BME280;50516;52.272;5.136;2023-04-03T13:07:24;103145.53;;;9.99;32.98
64200;BME280;50516;52.272;5.136;2023-04-03T13:09:57;103144.09;;;9.90;32.79
64200;BME280;50516;52.272;5.136;2023-04-03T13:12:22;103136.91;;;10.02;32.95
64200;BME280;50516;52.272;5.136;2023-04-03T13:14:57;103143.25;;;10.10;33.27
64200;BME280;50516;52.272;5.136;2023-04-03T13:17:24;103137.34;;;10.06;32.76
64200;BME280;50516;52.272;5.136;2023-04-03T13:19:50;103145.13;;;9.96;32.13
64200;BME280;50516;52.272;5.136;2023-04-03T13:22:36;103144.69;;;10.19;33.36
64200;BME280;50516;52.272;5.136;2023-04-03T13:25:09;103144.25;;;10.22;32.57
64200;BME280;50516;52.272;5.136;2023-04-03T13:27:37;103143.88;;;10.12;33.17
64200;BME280;50516;52.272;5.136;2023-04-03T13:30:05;103137.94;;;10.35;33.45
64200;BME280;50516;52.272;5.136;2023-04-03T13:32:32;103133.50;;;10.14;32.33
64200;BME280;50516;52.272;5.136;2023-04-03T13:34:58;103137.09;;;10.21;33.23
64200;BME280;50516;52.272;5.136;2023-04-03T13:37:29;103126.31;;;10.39;33.33
64200;BME280;50516;52.272;5.136;2023-04-03T13:42:34;103130.78;;;10.00;32.96
64200;BME280;50516;52.272;5.136;2023-04-03T13:45:23;103144.50;;;9.94;33.28
64200;BME280;50516;52.272;5.136;2023-04-03T13:47:52;103126.75;;;9.96;33.45
64200;BME280;50516;52.272;5.136;2023-04-03T13:50:23;103129.50;;;10.16;33.36
64200;BME280;50516;52.272;5.136;2023-04-03T13:53:33;103121.50;;;10.01;33.07
64200;BME280;50516;52.272;5.136;2023-04-03T13:56:09;103134.59;;;10.13;33.37
64200;BME280;50516;52.272;5.136;2023-04-03T13:59:03;103132.47;;;10.15;32.88
64200;BME280;50516;52.272;5.136;2023-04-03T14:04:25;103116.44;;;9.98;33.37
64200;BME280;50516;52.272;5.136;2023-04-03T14:06:53;103121.50;;;9.88;33.40
64200;BME280;50516;52.272;5.136;2023-04-03T14:09:20;103111.59;;;9.80;33.56
64200;BME280;50516;52.272;5.136;2023-04-03T14:11:47;103119.81;;;9.94;33.42
64200;BME280;50516;52.272;5.136;2023-04-03T14:14:27;103107.78;;;10.01;33.62
64200;BME280;50516;52.272;5.136;2023-04-03T14:16:58;103095.06;;;10.14;34.06
64200;BME280;50516;52.272;5.136;2023-04-03T14:19:28;103111.97;;;10.11;34.27
64200;BME280;50516;52.272;5.136;2023-04-03T14:21:55;103103.97;;;10.16;34.68